Latest Weather Observations for Fawkner Beacon

IDV60901

Issued at 9:41 pm EDT Wednesday 7 December 2022 (issued every 10 minutes, with the page automatically refreshed every 10 minutes)

About weather observations | Map of Melbourne area stations | Latest observations for Melbourne area | Other Formats
Station Details ID: 086376 Name: FAWKNER BEACON Lat: -37.95 Lon: 144.93 Height: 17.0 m
Data from the previous 72 hours. | See also: Recent months at Fawkner Beacon
Date/Time
EDT
Temp
°C
App
Temp
°C
Dew
Point
°C
Rel
Hum
%
Delta-T
°C
Wind Press
QNH
hPa
Press
MSL
hPa
Rain since
9am
mm
Dir  Spd
km/h
Gust
km/h
Spd
kts
Gust
kts
07/09:30pm - - - - - SW 56 69 30 37 - - -
07/09:00pm - - - - - SSW 54 63 29 34 - - -
07/08:30pm - - - - - SSW 54 67 29 36 - - -
07/08:25pm - - - - - SW 50 67 27 36 - - -
07/08:00pm - - - - - WSW 48 59 26 32 - - -
07/07:30pm - - - - - WSW 59 80 32 43 - - -
07/07:21pm - - - - - WSW 57 80 31 43 - - -
07/07:00pm - - - - - SW 48 59 26 32 - - -
07/06:48pm - - - - - SSW 28 48 15 26 - - -
07/06:40pm - - - - - SSW 30 41 16 22 - - -
07/06:30pm - - - - - SW 39 46 21 25 - - -
07/06:00pm - - - - - S 24 41 13 22 - - -
07/05:30pm - - - - - S 28 33 15 18 - - -
07/05:00pm - - - - - SSE 32 39 17 21 - - -
07/04:30pm - - - - - S 32 39 17 21 - - -
07/04:00pm - - - - - S 32 41 17 22 - - -
07/03:30pm - - - - - S 37 44 20 24 - - -
07/03:00pm - - - - - S 33 39 18 21 - - -
07/02:30pm - - - - - SSE 30 35 16 19 - - -
07/02:00pm - - - - - SSE 26 30 14 16 - - -
07/01:30pm - - - - - SSE 22 28 12 15 - - -
07/01:00pm - - - - - S 24 28 13 15 - - -
07/12:30pm - - - - - S 26 32 14 17 - - -
07/12:00pm - - - - - S 24 30 13 16 - - -
07/11:30am - - - - - S 26 30 14 16 - - -
07/11:00am - - - - - S 20 26 11 14 - - -
07/10:30am - - - - - S 17 22 9 12 - - -
07/10:00am - - - - - SSW 11 17 6 9 - - -
07/09:30am - - - - - SW 13 15 7 8 - - -
07/09:00am - - - - - SW 9 13 5 7 - - -
07/08:30am - - - - - W 7 11 4 6 - - -
07/08:00am - - - - - WNW 7 11 4 6 - - -
07/07:30am - - - - - W 9 11 5 6 - - -
07/07:00am - - - - - W 7 11 4 6 - - -
07/06:30am - - - - - WNW 11 13 6 7 - - -
07/06:00am - - - - - NNW 11 15 6 8 - - -
07/05:30am - - - - - NNW 13 15 7 8 - - -
07/05:00am - - - - - N 9 15 5 8 - - -
07/04:30am - - - - - N 11 13 6 7 - - -
07/04:00am - - - - - NNE 9 11 5 6 - - -
07/03:30am - - - - - NNE 11 15 6 8 - - -
07/03:00am - - - - - ENE 11 13 6 7 - - -
07/02:30am - - - - - ENE 13 15 7 8 - - -
07/02:00am - - - - - E 11 15 6 8 - - -
07/01:30am - - - - - E 17 22 9 12 - - -
07/01:00am - - - - - E 20 26 11 14 - - -
07/12:30am - - - - - ESE 24 28 13 15 - - -
07/12:00am - - - - - E 26 30 14 16 - - -
 
Date/Time
EDT
Temp
°C
App
Temp
°C
Dew
Point
°C
Rel
Hum
%
Delta-T
°C
Wind Press
QNH
hPa
Press
MSL
hPa
Rain since
9am
mm
Dir  Spd
km/h
Gust
km/h
Spd
kts
Gust
kts
06/11:30pm - - - - - ESE 26 30 14 16 - - -
06/11:00pm - - - - - ESE 28 32 15 17 - - -
06/10:30pm - - - - - ESE 26 30 14 16 - - -
06/10:00pm - - - - - ESE 24 28 13 15 - - -
06/09:30pm - - - - - ESE 24 30 13 16 - - -
06/09:00pm - - - - - ESE 28 30 15 16 - - -
06/08:30pm - - - - - ESE 26 30 14 16 - - -
06/08:00pm - - - - - ESE 20 24 11 13 - - -
06/07:30pm - - - - - ESE 20 24 11 13 - - -
06/07:00pm - - - - - SE 24 26 13 14 - - -
06/06:30pm - - - - - SE 24 28 13 15 - - -
06/06:00pm - - - - - S 26 30 14 16 - - -
06/05:30pm - - - - - S 28 32 15 17 - - -
06/05:00pm - - - - - S 24 28 13 15 - - -
06/04:30pm - - - - - S 22 26 12 14 - - -
06/04:00pm - - - - - S 24 28 13 15 - - -
06/03:30pm - - - - - S 22 26 12 14 - - -
06/03:00pm - - - - - S 22 26 12 14 - - -
06/02:30pm - - - - - S 20 26 11 14 - - -
06/02:00pm - - - - - S 17 20 9 11 - - -
06/01:30pm - - - - - S 13 17 7 9 - - -
06/01:00pm - - - - - S 15 20 8 11 - - -
06/12:30pm - - - - - SSE 17 22 9 12 - - -
06/12:00pm - - - - - SE 17 22 9 12 - - -
06/11:30am - - - - - SE 17 22 9 12 - - -
06/11:00am - - - - - SE 19 24 10 13 - - -
06/10:30am - - - - - E 17 20 9 11 - - -
06/10:00am - - - - - ESE 17 22 9 12 - - -
06/09:30am - - - - - E 19 22 10 12 - - -
06/09:00am - - - - - E 22 26 12 14 - - -
06/08:30am - - - - - ESE 35 43 19 23 - - -
06/08:00am - - - - - E 32 35 17 19 - - -
06/07:30am - - - - - E 32 39 17 21 - - -
06/07:00am - - - - - E 22 30 12 16 - - -
06/06:30am - - - - - ESE 22 26 12 14 - - -
06/06:00am - - - - - ESE 22 28 12 15 - - -
06/05:30am - - - - - SE 22 26 12 14 - - -
06/05:00am - - - - - SE 24 28 13 15 - - -
06/04:30am - - - - - SE 24 28 13 15 - - -
06/04:00am - - - - - SSE 17 24 9 13 - - -
06/03:30am - - - - - SSE 20 24 11 13 - - -
06/03:00am - - - - - SE 22 26 12 14 - - -
06/02:41am - - - - - SSE 28 33 15 18 - - -
06/02:30am - - - - - S 37 44 20 24 - - -
06/02:00am - - - - - S 35 41 19 22 - - -
06/01:30am - - - - - SSW 37 44 20 24 - - -
06/01:00am - - - - - SSW 39 44 21 24 - - -
06/12:30am - - - - - SSW 41 48 22 26 - - -
06/12:00am - - - - - SSW 44 50 24 27 - - -
 
Date/Time
EDT
Temp
°C
App
Temp
°C
Dew
Point
°C
Rel
Hum
%
Delta-T
°C
Wind Press
QNH
hPa
Press
MSL
hPa
Rain since
9am
mm
Dir  Spd
km/h
Gust
km/h
Spd
kts
Gust
kts
05/11:30pm - - - - - SSW 46 54 25 29 - - -
05/11:00pm - - - - - SSW 48 57 26 31 - - -
05/10:30pm - - - - - SSW 48 57 26 31 - - -
05/10:00pm - - - - - SSW 48 59 26 32 - - -
05/09:30pm - - - - - SSW 46 59 25 32 - - -
05/09:00pm - - - - - SSW 48 61 26 33 - - -
05/08:30pm - - - - - SSW 50 61 27 33 - - -
05/08:00pm - - - - - SSW 50 61 27 33 - - -
05/07:30pm - - - - - SW 50 61 27 33 - - -
05/07:00pm - - - - - SSW 50 61 27 33 - - -
05/06:30pm - - - - - SSW 50 63 27 34 - - -
05/06:00pm - - - - - SSW 46 57 25 31 - - -
05/05:30pm - - - - - SSW 50 61 27 33 - - -
05/05:00pm - - - - - SSW 50 59 27 32 - - -
05/04:30pm - - - - - SSW 50 61 27 33 - - -
05/04:00pm - - - - - SSW 50 59 27 32 - - -
05/03:30pm - - - - - SSW 46 54 25 29 - - -
05/03:00pm - - - - - SSW 46 57 25 31 - - -
05/02:30pm - - - - - SSW 44 54 24 29 - - -
05/02:00pm - - - - - SSW 46 54 25 29 - - -
05/01:30pm - - - - - SSW 44 52 24 28 - - -
05/01:00pm - - - - - SSW 43 50 23 27 - - -
05/12:30pm - - - - - SSW 43 50 23 27 - - -
05/12:00pm - - - - - SSW 46 54 25 29 - - -
05/11:30am - - - - - SSW 46 54 25 29 - - -
05/11:00am - - - - - SSW 48 57 26 31 - - -
05/10:30am - - - - - SSW 48 57 26 31 - - -
05/10:00am - - - - - SSW 48 54 26 29 - - -
05/09:30am - - - - - SSW 44 52 24 28 - - -
05/09:00am - - - - - SW 41 48 22 26 - - -
05/08:30am - - - - - SSW 39 46 21 25 - - -
05/08:00am - - - - - SSW 44 52 24 28 - - -
05/07:30am - - - - - SSW 41 46 22 25 - - -
05/07:00am - - - - - SSW 39 44 21 24 - - -
05/06:30am - - - - - SSW 37 44 20 24 - - -
05/06:29am - - - - - SSW 37 44 20 24 - - -
05/06:00am - - - - - WSW 35 41 19 22 - - -
05/05:30am - - - - - W 28 35 15 19 - - -
05/05:00am - - - - - W 30 35 16 19 - - -
05/04:30am - - - - - W 39 57 21 31 - - -
05/04:22am - - - - - WSW 39 57 21 31 - - -
05/04:00am - - - - - W 30 35 16 19 - - -
05/03:30am - - - - - WSW 39 46 21 25 - - -
05/03:00am - - - - - WSW 35 48 19 26 - - -
05/02:30am - - - - - SW 35 41 19 22 - - -
05/02:00am - - - - - SSW 19 28 10 15 - - -
05/01:30am - - - - - S 24 30 13 16 - - -
05/01:00am - - - - - S 26 30 14 16 - - -
05/12:30am - - - - - SSW 41 50 22 27 - - -
05/12:00am - - - - - S 43 50 23 27 - - -
 
Date/Time
EDT
Temp
°C
App
Temp
°C
Dew
Point
°C
Rel
Hum
%
Delta-T
°C
Wind Press
QNH
hPa
Press
MSL
hPa
Rain since
9am
mm
Dir  Spd
km/h
Gust
km/h
Spd
kts
Gust
kts
04/11:34pm - - - - - W 33 59 18 32 - - -
04/11:32pm - - - - - WNW 26 57 14 31 - - -
04/11:30pm - - - - - WNW 22 30 12 16 - - -
04/11:00pm - - - - - NW 32 43 17 23 - - -
04/10:30pm - - - - - N 32 39 17 21 - - -
04/10:00pm - - - - - N 32 39 17 21 - - -

Latest Capital City Observations: Canberra | Sydney | Melbourne | Brisbane | Adelaide | Perth | Hobart | Darwin

Other formats

Comma delimited format used in spreadsheet applications
http://www.bom.gov.au/fwo/IDV60901/IDV60901.95872.axf

JavaScript Object Notation format (JSON) in row-major order
http://www.bom.gov.au/fwo/IDV60901/IDV60901.95872.json

Data quality

Most of these data are generated automatically and are frequently updated. Quality checks on data are not normally performed. It is possible for incorrect values to appear. Refer to information at About Latest Weather Observations and please check the disclaimer before using these data.